Time,TemperatureF,DewpointF,PressureIn,WindDirection,WindDirectionDegrees,WindSpeedMPH,WindSpeedGustMPH,Humidity,HourlyPrecipIn,Conditions,Clouds,dailyrainin,SoftwareType,DateUTC
2013-02-19 00:12:00,32.0,15.0,30.16,West,280,27.0,31.0,49,-99.99,,,-99.99,,2013-02-19 05:12:00,
2013-02-19 00:22:00,32.0,15.0,30.16,West,280,27.0,31.0,49,-99.99,,,-99.99,,2013-02-19 05:22:00,
2013-02-19 00:31:00,32.0,15.0,30.16,West,280,27.0,31.0,49,-99.99,,,-99.99,,2013-02-19 05:31:00,
2013-02-19 00:42:00,32.0,15.0,30.16,West,280,27.0,31.0,49,-99.99,,,-99.99,,2013-02-19 05:42:00,
2013-02-19 00:50:00,32.0,17.0,30.17,West,280,22.0,27.0,53,-99.99,,,-99.99,,2013-02-19 05:50:00,
2013-02-19 01:21:00,32.0,17.0,30.17,West,280,22.0,27.0,53,-99.99,,,-99.99,,2013-02-19 06:21:00,
2013-02-19 01:32:00,32.0,17.0,30.17,West,280,22.0,27.0,53,-99.99,,,-99.99,,2013-02-19 06:32:00,
2013-02-19 01:41:00,32.0,17.0,30.17,West,280,22.0,27.0,53,-99.99,,,-99.99,,2013-02-19 06:41:00,
2013-02-19 01:50:00,33.0,20.0,30.17,West,270,18.0,22.0,58,-99.99,,,-99.99,,2013-02-19 06:50:00,
2013-02-19 02:11:00,33.0,20.0,30.17,West,270,18.0,22.0,58,-99.99,,,-99.99,,2013-02-19 07:11:00,
2013-02-19 02:21:00,33.0,20.0,30.17,West,270,18.0,22.0,58,-99.99,,,-99.99,,2013-02-19 07:21:00,
2013-02-19 02:31:00,33.0,20.0,30.17,West,270,18.0,22.0,58,-99.99,,,-99.99,,2013-02-19 07:31:00,
2013-02-19 02:41:00,33.0,20.0,30.17,West,270,18.0,22.0,58,-99.99,,,-99.99,,2013-02-19 07:41:00,
2013-02-19 02:50:00,33.0,22.0,30.15,West,270,20.0,25.0,62,-99.99,,,-99.99,,2013-02-19 07:50:00,
2013-02-19 03:21:00,33.0,22.0,30.15,West,270,20.0,25.0,62,-99.99,,,-99.99,,2013-02-19 08:21:00,
2013-02-19 03:31:00,33.0,22.0,30.15,West,270,20.0,25.0,62,-99.99,,,-99.99,,2013-02-19 08:31:00,
2013-02-19 03:41:00,33.0,22.0,30.15,West,270,20.0,25.0,62,-99.99,,,-99.99,,2013-02-19 08:41:00,
2013-02-19 03:50:00,34.0,26.0,30.16,West,270,18.0,20.0,70,-99.99,,,-99.99,,2013-02-19 08:50:00,
2013-02-19 04:11:00,34.0,26.0,30.16,West,270,18.0,20.0,70,-99.99,,,-99.99,,2013-02-19 09:11:00,
2013-02-19 04:21:00,34.0,26.0,30.16,West,270,18.0,20.0,70,-99.99,,,-99.99,,2013-02-19 09:21:00,
2013-02-19 04:31:00,34.0,26.0,30.16,West,270,18.0,20.0,70,-99.99,,,-99.99,,2013-02-19 09:31:00,
2013-02-19 04:41:00,34.0,26.0,30.16,West,270,18.0,20.0,70,-99.99,,,-99.99,,2013-02-19 09:41:00,
2013-02-19 04:50:00,35.0,24.0,30.16,West,270,16.0,20.0,64,-99.99,,,-99.99,,2013-02-19 09:50:00,
2013-02-19 05:11:00,35.0,24.0,30.16,West,270,16.0,20.0,64,-99.99,,,-99.99,,2013-02-19 10:11:00,
2013-02-19 05:21:00,35.0,24.0,30.16,West,270,16.0,20.0,64,-99.99,,,-99.99,,2013-02-19 10:21:00,
2013-02-19 05:31:00,35.0,24.0,30.16,West,270,16.0,20.0,64,-99.99,,,-99.99,,2013-02-19 10:31:00,
2013-02-19 05:41:00,35.0,24.0,30.16,West,270,16.0,20.0,64,-99.99,,,-99.99,,2013-02-19 10:41:00,
2013-02-19 05:50:00,34.0,24.0,30.16,WSW,240,9.0,9.0,67,-99.99,,,-99.99,,2013-02-19 10:50:00,
2013-02-19 06:11:00,34.0,24.0,30.16,WSW,240,9.0,9.0,67,-99.99,,,-99.99,,2013-02-19 11:11:00,
2013-02-19 06:21:00,34.0,24.0,30.16,WSW,240,9.0,9.0,67,-99.99,,,-99.99,,2013-02-19 11:21:00,
2013-02-19 06:31:00,34.0,24.0,30.16,WSW,240,9.0,9.0,67,-99.99,,,-99.99,,2013-02-19 11:31:00,
2013-02-19 06:41:00,34.0,24.0,30.16,WSW,240,9.0,9.0,67,-99.99,,,-99.99,,2013-02-19 11:41:00,
2013-02-19 06:50:00,35.0,26.0,30.15,WSW,250,11.0,13.0,69,-99.99,,,-99.99,,2013-02-19 11:50:00,
2013-02-19 07:12:00,35.0,26.0,30.15,WSW,250,11.0,13.0,69,-99.99,,,-99.99,,2013-02-19 12:12:00,
2013-02-19 07:21:00,35.0,26.0,30.15,WSW,250,11.0,13.0,69,-99.99,,,-99.99,,2013-02-19 12:21:00,
2013-02-19 07:32:00,35.0,26.0,30.15,WSW,250,11.0,13.0,69,-99.99,,,-99.99,,2013-02-19 12:32:00,
2013-02-19 07:41:00,35.0,26.0,30.15,WSW,250,11.0,13.0,69,-99.99,,,-99.99,,2013-02-19 12:41:00,
2013-02-19 07:50:00,35.0,28.0,30.14,SW,230,7.0,9.0,75,-99.99,,,-99.99,,2013-02-19 12:50:00,
2013-02-19 08:21:00,35.0,28.0,30.14,SW,230,7.0,9.0,75,-99.99,,,-99.99,,2013-02-19 13:21:00,
2013-02-19 08:31:00,35.0,28.0,30.14,SW,230,7.0,9.0,75,-99.99,,,-99.99,,2013-02-19 13:31:00,
2013-02-19 08:41:00,35.0,28.0,30.14,SW,230,7.0,9.0,75,-99.99,,,-99.99,,2013-02-19 13:41:00,
2013-02-19 08:50:00,36.0,29.0,30.13,South,180,7.0,9.0,77,-99.99,,,-99.99,,2013-02-19 13:50:00,
2013-02-19 09:11:00,36.0,29.0,30.13,South,180,7.0,9.0,77,-99.99,,,-99.99,,2013-02-19 14:11:00,
2013-02-19 09:21:00,36.0,29.0,30.13,South,180,7.0,9.0,77,-99.99,,,-99.99,,2013-02-19 14:21:00,
2013-02-19 09:32:00,36.0,29.0,30.13,South,180,7.0,9.0,77,-99.99,,,-99.99,,2013-02-19 14:32:00,
2013-02-19 09:41:00,36.0,29.0,30.13,South,180,7.0,9.0,77,-99.99,,,-99.99,,2013-02-19 14:41:00,
2013-02-19 09:50:00,37.0,31.0,30.12,South,180,11.0,11.0,81,-99.99,,,-99.99,,2013-02-19 14:50:00,
2013-02-19 10:21:00,37.0,31.0,30.12,South,180,11.0,11.0,81,-99.99,,,-99.99,,2013-02-19 15:21:00,
2013-02-19 10:31:00,37.0,31.0,30.12,South,180,11.0,11.0,81,-99.99,,,-99.99,,2013-02-19 15:31:00,
2013-02-19 10:41:00,37.0,31.0,30.12,South,180,11.0,11.0,81,-99.99,,,-99.99,,2013-02-19 15:41:00,
2013-02-19 10:50:00,37.0,33.0,30.11,South,190,9.0,11.0,83,-99.99,,,-99.99,,2013-02-19 15:50:00,
2013-02-19 11:21:00,37.0,33.0,30.11,South,190,9.0,11.0,83,-99.99,,,-99.99,,2013-02-19 16:21:00,
2013-02-19 11:31:00,37.0,33.0,30.11,South,190,9.0,11.0,83,-99.99,,,-99.99,,2013-02-19 16:31:00,
2013-02-19 11:41:00,37.0,33.0,30.11,South,190,9.0,11.0,83,-99.99,,,-99.99,,2013-02-19 16:41:00,
2013-02-19 11:50:00,38.0,32.0,30.09,South,180,16.0,16.0,78,-99.99,,,-99.99,,2013-02-19 16:50:00,
2013-02-19 12:11:00,38.0,32.0,30.09,South,180,16.0,16.0,78,-99.99,,,-99.99,,2013-02-19 17:11:00,
2013-02-19 12:21:00,38.0,32.0,30.09,South,180,16.0,16.0,78,-99.99,,,-99.99,,2013-02-19 17:21:00,
2013-02-19 12:31:00,38.0,32.0,30.09,South,180,16.0,16.0,78,-99.99,,,-99.99,,2013-02-19 17:31:00,
2013-02-19 12:41:00,38.0,32.0,30.09,South,180,16.0,16.0,78,-99.99,,,-99.99,,2013-02-19 17:41:00,
2013-02-19 12:50:00,39.0,33.0,30.05,South,170,16.0,18.0,77,-99.99,,,-99.99,,2013-02-19 17:50:00,
2013-02-19 13:11:00,39.0,33.0,30.05,South,170,16.0,18.0,77,-99.99,,,-99.99,,2013-02-19 18:11:00,
2013-02-19 13:21:00,39.0,33.0,30.05,South,170,16.0,18.0,77,-99.99,,,-99.99,,2013-02-19 18:21:00,
2013-02-19 13:31:00,39.0,33.0,30.05,South,170,16.0,18.0,77,-99.99,,,-99.99,,2013-02-19 18:31:00,
2013-02-19 13:41:00,39.0,33.0,30.05,South,170,16.0,18.0,77,-99.99,,,-99.99,,2013-02-19 18:41:00,
2013-02-19 13:50:00,40.0,33.0,30.01,SSE,160,16.0,18.0,78,-99.99,,,-99.99,,2013-02-19 18:50:00,
2013-02-19 14:11:00,40.0,33.0,30.01,SSE,160,16.0,18.0,78,-99.99,,,-99.99,,2013-02-19 19:11:00,
2013-02-19 14:21:00,40.0,33.0,30.01,SSE,160,16.0,18.0,78,-99.99,,,-99.99,,2013-02-19 19:21:00,
2013-02-19 14:31:00,40.0,33.0,30.01,SSE,160,16.0,18.0,78,-99.99,,,-99.99,,2013-02-19 19:31:00,
2013-02-19 14:41:00,40.0,33.0,30.01,SSE,160,16.0,18.0,78,-99.99,,,-99.99,,2013-02-19 19:41:00,
2013-02-19 14:50:00,40.0,36.0,29.98,SSE,160,16.0,18.0,84,-99.99,,,-99.99,,2013-02-19 19:50:00,
2013-02-19 15:11:00,40.0,36.0,29.98,SSE,160,16.0,18.0,84,-99.99,,,-99.99,,2013-02-19 20:11:00,
2013-02-19 15:21:00,40.0,36.0,29.98,SSE,160,16.0,18.0,84,-99.99,,,-99.99,,2013-02-19 20:21:00,
2013-02-19 15:31:00,40.0,36.0,29.98,SSE,160,16.0,18.0,84,-99.99,,,-99.99,,2013-02-19 20:31:00,
2013-02-19 15:41:00,40.0,36.0,29.98,SSE,160,16.0,18.0,84,-99.99,,,-99.99,,2013-02-19 20:41:00,
2013-02-19 15:50:00,40.0,37.0,29.94,SSE,160,16.0,18.0,87,-99.99,,,-99.99,,2013-02-19 20:50:00,
2013-02-19 16:21:00,40.0,37.0,29.94,SSE,160,16.0,18.0,87,-99.99,,,-99.99,,2013-02-19 21:21:00,
2013-02-19 16:31:00,40.0,37.0,29.94,SSE,160,16.0,18.0,87,-99.99,,,-99.99,,2013-02-19 21:31:00,
2013-02-19 16:42:00,40.0,37.0,29.94,SSE,160,16.0,18.0,87,-99.99,,,-99.99,,2013-02-19 21:42:00,
2013-02-19 16:50:00,41.0,37.0,29.90,South,170,16.0,20.0,85,-99.99,,,-99.99,,2013-02-19 21:50:00,
2013-02-19 17:11:00,41.0,37.0,29.90,South,170,16.0,20.0,85,-99.99,,,-99.99,,2013-02-19 22:11:00,
2013-02-19 17:21:00,41.0,37.0,29.90,South,170,16.0,20.0,85,-99.99,,,-99.99,,2013-02-19 22:21:00,
2013-02-19 17:31:00,41.0,37.0,29.90,South,170,16.0,20.0,85,-99.99,,,-99.99,,2013-02-19 22:31:00,
2013-02-19 17:41:00,41.0,37.0,29.90,South,170,16.0,20.0,85,-99.99,,,-99.99,,2013-02-19 22:41:00,
2013-02-19 17:50:00,42.0,39.0,29.87,SSE,160,18.0,20.0,88,-99.99,,,-99.99,,2013-02-19 22:50:00,
2013-02-19 18:21:00,42.0,39.0,29.87,SSE,160,18.0,20.0,88,-99.99,,,-99.99,,2013-02-19 23:21:00,
2013-02-19 18:31:00,42.0,39.0,29.87,SSE,160,18.0,20.0,88,-99.99,,,-99.99,,2013-02-19 23:31:00,
2013-02-19 18:41:00,42.0,39.0,29.87,SSE,160,18.0,20.0,88,-99.99,,,-99.99,,2013-02-19 23:41:00,
2013-02-19 18:50:00,42.0,39.0,29.81,SSE,150,18.0,20.0,89,-99.99,,,-99.99,,2013-02-19 23:50:00,
2013-02-19 19:21:00,42.0,39.0,29.81,SSE,150,18.0,20.0,89,-99.99,,,-99.99,,2013-02-20 00:21:00,
2013-02-19 19:31:00,42.0,39.0,29.81,SSE,150,18.0,20.0,89,-99.99,,,-99.99,,2013-02-20 00:31:00,
2013-02-19 19:41:00,42.0,39.0,29.81,SSE,150,18.0,20.0,89,-99.99,,,-99.99,,2013-02-20 00:41:00,
2013-02-19 19:50:00,43.0,40.0,29.75,SSE,150,25.0,27.0,88,-99.99,,,-99.99,,2013-02-20 00:50:00,
2013-02-19 20:21:00,43.0,40.0,29.75,SSE,150,25.0,27.0,88,-99.99,,,-99.99,,2013-02-20 01:21:00,
2013-02-19 20:31:00,43.0,40.0,29.75,SSE,150,25.0,27.0,88,-99.99,,,-99.99,,2013-02-20 01:31:00,
2013-02-19 20:41:00,43.0,40.0,29.75,SSE,150,25.0,27.0,88,-99.99,,,-99.99,,2013-02-20 01:41:00,
2013-02-19 20:50:00,44.0,42.0,29.67,SSE,160,29.0,36.0,93,-99.99,,,-99.99,,2013-02-20 01:50:00,
2013-02-19 21:21:00,44.0,42.0,29.67,SSE,160,29.0,36.0,93,-99.99,,,-99.99,,2013-02-20 02:21:00,
2013-02-19 21:31:00,44.0,42.0,29.67,SSE,160,29.0,36.0,93,-99.99,,,-99.99,,2013-02-20 02:31:00,
2013-02-19 21:41:00,44.0,42.0,29.67,SSE,160,29.0,36.0,93,-99.99,,,-99.99,,2013-02-20 02:41:00,
2013-02-19 21:50:00,44.0,43.0,29.63,South,170,31.0,38.0,95,-99.99,,,-99.99,,2013-02-20 02:50:00,
2013-02-19 22:21:00,44.0,43.0,29.63,South,170,31.0,38.0,95,-99.99,,,-99.99,,2013-02-20 03:21:00,
2013-02-19 22:31:00,44.0,43.0,29.63,South,170,31.0,38.0,95,-99.99,,,-99.99,,2013-02-20 03:31:00,
2013-02-19 22:41:00,44.0,43.0,29.63,South,170,31.0,38.0,95,-99.99,,,-99.99,,2013-02-20 03:41:00,
2013-02-19 22:50:00,43.0,42.0,29.62,South,180,20.0,22.0,95,-99.99,,,-99.99,,2013-02-20 03:50:00,
2013-02-19 23:11:00,43.0,42.0,29.62,South,180,20.0,22.0,95,-99.99,,,-99.99,,2013-02-20 04:11:00,
2013-02-19 23:21:00,43.0,42.0,29.62,South,180,20.0,22.0,95,-99.99,,,-99.99,,2013-02-20 04:21:00,
2013-02-19 23:31:00,43.0,42.0,29.62,South,180,20.0,22.0,95,-99.99,,,-99.99,,2013-02-20 04:31:00,
2013-02-19 23:41:00,43.0,42.0,29.62,South,180,20.0,22.0,95,-99.99,,,-99.99,,2013-02-20 04:41:00,
2013-02-19 23:50:00,40.0,40.0,29.61,WSW,240,9.0,11.0,98,-99.99,,,-99.99,,2013-02-20 04:50:00,